CheckWX is a tool to help pilots better visualize weather data.  It is not intended as a substitute for an official pre-flight weather briefing.

09:13:31 UTC

VIDP METAR
Indira Gandhi International Airport
New Delhi, India
Current

14 mins ago

VIDP 180900Z 31008KT 4500 HZ SCT035 BKN100 33/17 Q1003 NOSIG
Observed
Jun-18 @ 09:00 UTC
Wind
  • 310° at 8 KTS
Visibility
4,506 meters
Flight Rules
IFR
Conditions
Haze
Cloud Levels
  • Scattered at 3,500' AGL
  • Broken at 10,000' AGL
Temperature
33°C / 91°F
Dewpoint
17°C / 63°F
Humidity
38%
Altimeter
29.62" Hg
Pressure
1002.92 hPa
Previous

44 mins ago

VIDP 180830Z 29005G15KT 4500 HZ FEW040 SCT100 34/17 Q1003 NOSIG
Observed
Jun-18 @ 08:30 UTC
Wind
  • 290° at 5 KTS
  • Gusting to 15 KTS
Visibility
4,506 meters
Flight Rules
IFR
Conditions
Haze
Cloud Levels
  • Few at 4,000' AGL
  • Scattered at 10,000' AGL
Temperature
34°C / 93°F
Dewpoint
17°C / 63°F
Humidity
36%
Altimeter
29.62" Hg
Pressure
1002.92 hPa
Previous

1 hour ago

VIDP 180800Z 31010G20KT 4500 HZ FEW040 SCT100 35/15 Q1003 NOSIG
Observed
Jun-18 @ 08:00 UTC
Wind
  • 310° at 10 KTS
  • Gusting to 20 KTS
Visibility
4,506 meters
Flight Rules
IFR
Conditions
Haze
Cloud Levels
  • Few at 4,000' AGL
  • Scattered at 10,000' AGL
Temperature
35°C / 95°F
Dewpoint
15°C / 59°F
Humidity
30%
Altimeter
29.62" Hg
Pressure
1002.92 hPa